sensor_id;sensor_type;location;lat;lon;timestamp;P1;durP1;ratioP1;P2;durP2;ratioP2
22531;SDS011;11432;46.924;7.114;2023-04-03T00:01:31;1.23;;;0.20;;
22531;SDS011;11432;46.924;7.114;2023-04-03T00:03:57;0.85;;;0.20;;
22531;SDS011;11432;46.924;7.114;2023-04-03T00:06:23;0.28;;;0.10;;
22531;SDS011;11432;46.924;7.114;2023-04-03T00:08:50;1.25;;;0.10;;
22531;SDS011;11432;46.924;7.114;2023-04-03T00:11:16;0.75;;;0.10;;
22531;SDS011;11432;46.924;7.114;2023-04-03T00:13:42;1.55;;;0.20;;
22531;SDS011;11432;46.924;7.114;2023-04-03T00:16:08;0.52;;;0.30;;
22531;SDS011;11432;46.924;7.114;2023-04-03T00:18:35;0.45;;;0.43;;
22531;SDS011;11432;46.924;7.114;2023-04-03T00:21:01;0.90;;;0.68;;
22531;SDS011;11432;46.924;7.114;2023-04-03T00:23:27;1.95;;;0.38;;
22531;SDS011;11432;46.924;7.114;2023-04-03T00:25:53;0.28;;;0.20;;
22531;SDS011;11432;46.924;7.114;2023-04-03T00:28:19;0.32;;;0.10;;
22531;SDS011;11432;46.924;7.114;2023-04-03T00:30:46;0.50;;;0.20;;
22531;SDS011;11432;46.924;7.114;2023-04-03T00:33:13;0.20;;;0.10;;
22531;SDS011;11432;46.924;7.114;2023-04-03T00:35:39;0.15;;;0.15;;
22531;SDS011;11432;46.924;7.114;2023-04-03T00:38:05;0.65;;;0.20;;
22531;SDS011;11432;46.924;7.114;2023-04-03T00:40:35;0.82;;;0.20;;
22531;SDS011;11432;46.924;7.114;2023-04-03T00:43:05;0.52;;;0.25;;
22531;SDS011;11432;46.924;7.114;2023-04-03T00:45:40;0.13;;;0.10;;
22531;SDS011;11432;46.924;7.114;2023-04-03T00:48:08;0.65;;;0.30;;
22531;SDS011;11432;46.924;7.114;2023-04-03T00:50:39;2.38;;;0.30;;
22531;SDS011;11432;46.924;7.114;2023-04-03T00:53:06;0.30;;;0.20;;
22531;SDS011;11432;46.924;7.114;2023-04-03T00:55:36;0.77;;;0.40;;
22531;SDS011;11432;46.924;7.114;2023-04-03T00:58:03;0.57;;;0.30;;
22531;SDS011;11432;46.924;7.114;2023-04-03T01:00:32;0.30;;;0.25;;
22531;SDS011;11432;46.924;7.114;2023-04-03T01:02:58;0.35;;;0.22;;
22531;SDS011;11432;46.924;7.114;2023-04-03T01:05:25;0.35;;;0.30;;
22531;SDS011;11432;46.924;7.114;2023-04-03T01:07:51;0.88;;;0.30;;
22531;SDS011;11432;46.924;7.114;2023-04-03T01:10:18;0.75;;;0.30;;
22531;SDS011;11432;46.924;7.114;2023-04-03T01:12:46;0.47;;;0.28;;
22531;SDS011;11432;46.924;7.114;2023-04-03T01:15:15;0.40;;;0.40;;
22531;SDS011;11432;46.924;7.114;2023-04-03T01:17:44;0.68;;;0.40;;
22531;SDS011;11432;46.924;7.114;2023-04-03T01:25:30;0.57;;;0.38;;
22531;SDS011;11432;46.924;7.114;2023-04-03T01:27:57;0.47;;;0.38;;
22531;SDS011;11432;46.924;7.114;2023-04-03T01:30:24;2.72;;;0.32;;
22531;SDS011;11432;46.924;7.114;2023-04-03T01:32:55;0.30;;;0.20;;
22531;SDS011;11432;46.924;7.114;2023-04-03T01:35:21;0.40;;;0.30;;
22531;SDS011;11432;46.924;7.114;2023-04-03T01:37:46;0.20;;;0.20;;
22531;SDS011;11432;46.924;7.114;2023-04-03T01:40:12;0.55;;;0.20;;
22531;SDS011;11432;46.924;7.114;2023-04-03T01:42:38;0.50;;;0.30;;
22531;SDS011;11432;46.924;7.114;2023-04-03T01:45:03;0.93;;;0.20;;
22531;SDS011;11432;46.924;7.114;2023-04-03T01:47:29;1.10;;;0.30;;
22531;SDS011;11432;46.924;7.114;2023-04-03T01:49:55;3.05;;;0.30;;
22531;SDS011;11432;46.924;7.114;2023-04-03T01:52:21;0.65;;;0.30;;
22531;SDS011;11432;46.924;7.114;2023-04-03T01:54:46;0.40;;;0.22;;
22531;SDS011;11432;46.924;7.114;2023-04-03T01:57:12;0.43;;;0.30;;
22531;SDS011;11432;46.924;7.114;2023-04-03T01:59:40;0.98;;;0.88;;
22531;SDS011;11432;46.924;7.114;2023-04-03T02:02:06;0.30;;;0.25;;
22531;SDS011;11432;46.924;7.114;2023-04-03T02:04:31;1.75;;;0.40;;
22531;SDS011;11432;46.924;7.114;2023-04-03T02:06:57;1.33;;;0.38;;
22531;SDS011;11432;46.924;7.114;2023-04-03T02:09:23;0.60;;;0.40;;
22531;SDS011;11432;46.924;7.114;2023-04-03T02:11:49;0.30;;;0.20;;
22531;SDS011;11432;46.924;7.114;2023-04-03T02:14:14;0.20;;;0.20;;
22531;SDS011;11432;46.924;7.114;2023-04-03T02:16:40;0.63;;;0.30;;
22531;SDS011;11432;46.924;7.114;2023-04-03T02:19:05;0.88;;;0.35;;
22531;SDS011;11432;46.924;7.114;2023-04-03T02:21:31;0.43;;;0.30;;
22531;SDS011;11432;46.924;7.114;2023-04-03T02:23:57;0.32;;;0.30;;
22531;SDS011;11432;46.924;7.114;2023-04-03T02:26:22;0.47;;;0.30;;
22531;SDS011;11432;46.924;7.114;2023-04-03T02:28:48;0.43;;;0.20;;
22531;SDS011;11432;46.924;7.114;2023-04-03T02:31:14;0.57;;;0.30;;
22531;SDS011;11432;46.924;7.114;2023-04-03T02:33:39;0.43;;;0.20;;
22531;SDS011;11432;46.924;7.114;2023-04-03T02:36:06;1.52;;;0.30;;
22531;SDS011;11432;46.924;7.114;2023-04-03T02:38:32;0.77;;;0.30;;
22531;SDS011;11432;46.924;7.114;2023-04-03T02:41:06;0.30;;;0.30;;
22531;SDS011;11432;46.924;7.114;2023-04-03T02:43:33;0.82;;;0.38;;
22531;SDS011;11432;46.924;7.114;2023-04-03T02:45:59;0.65;;;0.40;;
22531;SDS011;11432;46.924;7.114;2023-04-03T02:48:25;0.22;;;0.22;;
22531;SDS011;11432;46.924;7.114;2023-04-03T02:50:51;0.45;;;0.20;;
22531;SDS011;11432;46.924;7.114;2023-04-03T02:53:17;1.50;;;0.40;;
22531;SDS011;11432;46.924;7.114;2023-04-03T02:55:43;1.23;;;0.52;;
22531;SDS011;11432;46.924;7.114;2023-04-03T02:58:10;0.40;;;0.40;;
22531;SDS011;11432;46.924;7.114;2023-04-03T03:00:36;0.50;;;0.35;;
22531;SDS011;11432;46.924;7.114;2023-04-03T03:03:02;0.95;;;0.60;;
22531;SDS011;11432;46.924;7.114;2023-04-03T03:05:28;1.25;;;0.63;;
22531;SDS011;11432;46.924;7.114;2023-04-03T03:07:53;1.13;;;0.80;;
22531;SDS011;11432;46.924;7.114;2023-04-03T03:10:19;1.95;;;1.13;;
22531;SDS011;11432;46.924;7.114;2023-04-03T03:12:45;1.33;;;1.00;;
22531;SDS011;11432;46.924;7.114;2023-04-03T03:15:11;1.52;;;1.00;;
22531;SDS011;11432;46.924;7.114;2023-04-03T03:17:37;2.45;;;1.38;;
22531;SDS011;11432;46.924;7.114;2023-04-03T03:20:03;1.63;;;1.15;;
22531;SDS011;11432;46.924;7.114;2023-04-03T03:22:30;3.72;;;1.65;;
22531;SDS011;11432;46.924;7.114;2023-04-03T03:24:55;2.25;;;1.35;;
22531;SDS011;11432;46.924;7.114;2023-04-03T03:27:21;2.38;;;1.50;;
22531;SDS011;11432;46.924;7.114;2023-04-03T03:29:47;2.65;;;1.63;;
22531;SDS011;11432;46.924;7.114;2023-04-03T03:32:12;3.08;;;1.88;;
22531;SDS011;11432;46.924;7.114;2023-04-03T03:34:38;3.45;;;1.92;;
22531;SDS011;11432;46.924;7.114;2023-04-03T03:37:04;2.80;;;1.70;;
22531;SDS011;11432;46.924;7.114;2023-04-03T03:39:30;2.97;;;2.00;;
22531;SDS011;11432;46.924;7.114;2023-04-03T03:41:55;1.83;;;1.33;;
22531;SDS011;11432;46.924;7.114;2023-04-03T03:44:22;3.38;;;1.70;;
22531;SDS011;11432;46.924;7.114;2023-04-03T03:46:47;3.85;;;2.15;;
22531;SDS011;11432;46.924;7.114;2023-04-03T03:49:13;3.05;;;2.13;;
22531;SDS011;11432;46.924;7.114;2023-04-03T03:51:39;3.60;;;2.00;;
22531;SDS011;11432;46.924;7.114;2023-04-03T03:54:05;3.28;;;2.20;;
22531;SDS011;11432;46.924;7.114;2023-04-03T03:56:31;4.50;;;2.53;;
22531;SDS011;11432;46.924;7.114;2023-04-03T03:58:57;3.47;;;1.73;;
22531;SDS011;11432;46.924;7.114;2023-04-03T04:01:23;3.10;;;2.00;;
22531;SDS011;11432;46.924;7.114;2023-04-03T04:03:49;3.40;;;2.00;;
22531;SDS011;11432;46.924;7.114;2023-04-03T04:06:15;4.95;;;2.25;;
22531;SDS011;11432;46.924;7.114;2023-04-03T04:08:41;4.78;;;2.30;;
22531;SDS011;11432;46.924;7.114;2023-04-03T04:11:07;3.83;;;2.40;;
22531;SDS011;11432;46.924;7.114;2023-04-03T04:13:33;3.85;;;2.47;;
22531;SDS011;11432;46.924;7.114;2023-04-03T04:15:59;3.08;;;2.08;;
22531;SDS011;11432;46.924;7.114;2023-04-03T04:18:24;3.13;;;1.90;;
22531;SDS011;11432;46.924;7.114;2023-04-03T04:20:50;3.72;;;2.72;;
22531;SDS011;11432;46.924;7.114;2023-04-03T04:23:16;3.63;;;2.40;;
22531;SDS011;11432;46.924;7.114;2023-04-03T04:25:46;3.45;;;2.38;;
22531;SDS011;11432;46.924;7.114;2023-04-03T04:28:13;3.83;;;2.50;;
22531;SDS011;11432;46.924;7.114;2023-04-03T04:30:40;3.70;;;2.40;;
22531;SDS011;11432;46.924;7.114;2023-04-03T04:33:06;4.30;;;3.15;;
22531;SDS011;11432;46.924;7.114;2023-04-03T04:35:32;4.45;;;2.80;;
22531;SDS011;11432;46.924;7.114;2023-04-03T04:37:58;4.20;;;3.03;;
22531;SDS011;11432;46.924;7.114;2023-04-03T04:40:23;4.28;;;2.90;;
22531;SDS011;11432;46.924;7.114;2023-04-03T04:42:49;3.75;;;2.83;;
22531;SDS011;11432;46.924;7.114;2023-04-03T04:45:15;3.47;;;2.90;;
22531;SDS011;11432;46.924;7.114;2023-04-03T04:47:41;4.22;;;3.05;;
22531;SDS011;11432;46.924;7.114;2023-04-03T04:50:07;4.03;;;3.08;;
22531;SDS011;11432;46.924;7.114;2023-04-03T04:52:33;4.10;;;3.17;;
22531;SDS011;11432;46.924;7.114;2023-04-03T04:54:59;4.15;;;2.97;;
22531;SDS011;11432;46.924;7.114;2023-04-03T04:57:24;4.13;;;2.90;;
22531;SDS011;11432;46.924;7.114;2023-04-03T04:59:50;3.78;;;3.17;;
22531;SDS011;11432;46.924;7.114;2023-04-03T05:02:16;5.00;;;2.92;;
22531;SDS011;11432;46.924;7.114;2023-04-03T05:04:42;3.88;;;2.90;;
22531;SDS011;11432;46.924;7.114;2023-04-03T05:07:07;3.90;;;3.03;;
22531;SDS011;11432;46.924;7.114;2023-04-03T05:09:33;4.03;;;2.95;;
22531;SDS011;11432;46.924;7.114;2023-04-03T05:11:59;3.58;;;2.80;;
22531;SDS011;11432;46.924;7.114;2023-04-03T05:14:25;4.82;;;2.67;;
22531;SDS011;11432;46.924;7.114;2023-04-03T05:16:50;4.50;;;2.92;;
22531;SDS011;11432;46.924;7.114;2023-04-03T05:19:19;3.42;;;2.28;;
22531;SDS011;11432;46.924;7.114;2023-04-03T05:21:45;3.97;;;2.63;;
22531;SDS011;11432;46.924;7.114;2023-04-03T05:24:11;3.60;;;2.78;;
22531;SDS011;11432;46.924;7.114;2023-04-03T05:26:37;4.20;;;2.88;;
22531;SDS011;11432;46.924;7.114;2023-04-03T05:29:03;2.95;;;2.58;;
22531;SDS011;11432;46.924;7.114;2023-04-03T05:31:28;3.20;;;2.70;;
22531;SDS011;11432;46.924;7.114;2023-04-03T05:33:55;4.20;;;3.15;;
22531;SDS011;11432;46.924;7.114;2023-04-03T05:36:20;4.47;;;2.70;;
22531;SDS011;11432;46.924;7.114;2023-04-03T05:38:46;5.28;;;3.38;;
22531;SDS011;11432;46.924;7.114;2023-04-03T05:41:12;4.03;;;3.20;;
22531;SDS011;11432;46.924;7.114;2023-04-03T05:43:39;3.72;;;2.72;;
22531;SDS011;11432;46.924;7.114;2023-04-03T05:46:09;4.40;;;3.25;;
22531;SDS011;11432;46.924;7.114;2023-04-03T05:48:37;3.67;;;2.90;;
22531;SDS011;11432;46.924;7.114;2023-04-03T05:51:02;4.05;;;3.08;;
22531;SDS011;11432;46.924;7.114;2023-04-03T05:53:29;4.05;;;3.05;;
22531;SDS011;11432;46.924;7.114;2023-04-03T05:55:58;4.65;;;2.80;;
22531;SDS011;11432;46.924;7.114;2023-04-03T05:58:23;3.88;;;3.10;;
22531;SDS011;11432;46.924;7.114;2023-04-03T06:00:49;4.40;;;3.40;;
22531;SDS011;11432;46.924;7.114;2023-04-03T06:03:14;3.15;;;2.65;;
22531;SDS011;11432;46.924;7.114;2023-04-03T06:05:41;4.85;;;3.55;;
22531;SDS011;11432;46.924;7.114;2023-04-03T06:08:07;4.20;;;3.17;;
22531;SDS011;11432;46.924;7.114;2023-04-03T06:10:34;3.30;;;2.60;;
22531;SDS011;11432;46.924;7.114;2023-04-03T06:13:00;3.58;;;2.90;;
22531;SDS011;11432;46.924;7.114;2023-04-03T06:15:26;3.88;;;3.25;;
22531;SDS011;11432;46.924;7.114;2023-04-03T06:17:52;4.35;;;3.00;;
22531;SDS011;11432;46.924;7.114;2023-04-03T06:20:17;5.18;;;2.67;;
22531;SDS011;11432;46.924;7.114;2023-04-03T06:22:43;4.60;;;3.28;;
22531;SDS011;11432;46.924;7.114;2023-04-03T06:25:09;5.30;;;3.70;;
22531;SDS011;11432;46.924;7.114;2023-04-03T06:27:35;3.67;;;3.05;;
22531;SDS011;11432;46.924;7.114;2023-04-03T06:30:00;3.95;;;3.22;;
22531;SDS011;11432;46.924;7.114;2023-04-03T06:32:26;3.65;;;3.20;;
22531;SDS011;11432;46.924;7.114;2023-04-03T06:34:52;6.43;;;2.78;;
22531;SDS011;11432;46.924;7.114;2023-04-03T06:37:19;4.03;;;3.60;;
22531;SDS011;11432;46.924;7.114;2023-04-03T06:39:46;5.18;;;3.28;;
22531;SDS011;11432;46.924;7.114;2023-04-03T06:42:12;4.40;;;3.58;;
22531;SDS011;11432;46.924;7.114;2023-04-03T06:44:38;4.47;;;3.00;;
22531;SDS011;11432;46.924;7.114;2023-04-03T06:47:04;3.88;;;3.05;;
22531;SDS011;11432;46.924;7.114;2023-04-03T06:49:30;5.03;;;3.13;;
22531;SDS011;11432;46.924;7.114;2023-04-03T06:51:56;3.42;;;3.13;;
22531;SDS011;11432;46.924;7.114;2023-04-03T06:54:22;6.80;;;2.40;;
22531;SDS011;11432;46.924;7.114;2023-04-03T06:56:48;5.60;;;3.28;;
22531;SDS011;11432;46.924;7.114;2023-04-03T06:59:14;4.72;;;3.60;;
22531;SDS011;11432;46.924;7.114;2023-04-03T07:01:40;5.05;;;3.38;;
22531;SDS011;11432;46.924;7.114;2023-04-03T07:04:07;4.47;;;3.22;;
22531;SDS011;11432;46.924;7.114;2023-04-03T07:06:33;4.20;;;3.10;;
22531;SDS011;11432;46.924;7.114;2023-04-03T07:08:59;4.28;;;3.42;;
22531;SDS011;11432;46.924;7.114;2023-04-03T07:11:25;3.65;;;3.00;;
22531;SDS011;11432;46.924;7.114;2023-04-03T07:13:52;4.20;;;3.10;;
22531;SDS011;11432;46.924;7.114;2023-04-03T07:16:18;3.85;;;3.08;;
22531;SDS011;11432;46.924;7.114;2023-04-03T07:18:45;3.90;;;3.10;;
22531;SDS011;11432;46.924;7.114;2023-04-03T07:21:11;4.15;;;2.58;;
22531;SDS011;11432;46.924;7.114;2023-04-03T07:23:36;4.57;;;2.63;;
22531;SDS011;11432;46.924;7.114;2023-04-03T07:26:03;3.70;;;2.65;;
22531;SDS011;11432;46.924;7.114;2023-04-03T07:28:29;3.40;;;2.70;;
22531;SDS011;11432;46.924;7.114;2023-04-03T07:31:04;4.72;;;3.10;;
22531;SDS011;11432;46.924;7.114;2023-04-03T07:33:33;4.60;;;3.45;;
22531;SDS011;11432;46.924;7.114;2023-04-03T07:36:00;4.53;;;2.92;;
22531;SDS011;11432;46.924;7.114;2023-04-03T07:38:25;4.05;;;3.30;;
22531;SDS011;11432;46.924;7.114;2023-04-03T07:40:51;3.75;;;3.20;;
22531;SDS011;11432;46.924;7.114;2023-04-03T07:43:18;10.02;;;3.95;;
22531;SDS011;11432;46.924;7.114;2023-04-03T07:45:45;6.53;;;3.65;;
22531;SDS011;11432;46.924;7.114;2023-04-03T07:48:12;4.95;;;3.60;;
22531;SDS011;11432;46.924;7.114;2023-04-03T07:50:41;4.60;;;3.10;;
22531;SDS011;11432;46.924;7.114;2023-04-03T07:53:07;17.48;;;5.57;;
22531;SDS011;11432;46.924;7.114;2023-04-03T07:55:33;4.35;;;3.42;;
22531;SDS011;11432;46.924;7.114;2023-04-03T07:57:59;3.80;;;2.95;;
22531;SDS011;11432;46.924;7.114;2023-04-03T08:00:24;3.60;;;3.00;;
22531;SDS011;11432;46.924;7.114;2023-04-03T08:02:50;5.00;;;3.08;;
22531;SDS011;11432;46.924;7.114;2023-04-03T08:05:20;5.78;;;3.33;;
22531;SDS011;11432;46.924;7.114;2023-04-03T08:07:46;6.75;;;3.65;;
22531;SDS011;11432;46.924;7.114;2023-04-03T08:10:12;3.90;;;3.05;;
22531;SDS011;11432;46.924;7.114;2023-04-03T08:12:39;3.17;;;2.67;;
22531;SDS011;11432;46.924;7.114;2023-04-03T08:15:05;3.25;;;2.63;;
22531;SDS011;11432;46.924;7.114;2023-04-03T08:17:33;4.03;;;3.08;;
22531;SDS011;11432;46.924;7.114;2023-04-03T08:19:58;2.33;;;1.88;;
22531;SDS011;11432;46.924;7.114;2023-04-03T08:22:24;3.25;;;2.55;;
22531;SDS011;11432;46.924;7.114;2023-04-03T08:24:51;3.15;;;2.58;;
22531;SDS011;11432;46.924;7.114;2023-04-03T08:27:16;3.47;;;2.75;;
22531;SDS011;11432;46.924;7.114;2023-04-03T08:29:42;3.80;;;3.03;;
22531;SDS011;11432;46.924;7.114;2023-04-03T08:32:08;3.13;;;2.60;;
22531;SDS011;11432;46.924;7.114;2023-04-03T08:34:33;4.07;;;2.88;;
22531;SDS011;11432;46.924;7.114;2023-04-03T08:37:00;3.25;;;2.33;;
22531;SDS011;11432;46.924;7.114;2023-04-03T08:39:26;3.80;;;2.50;;
22531;SDS011;11432;46.924;7.114;2023-04-03T08:41:52;3.42;;;2.25;;
22531;SDS011;11432;46.924;7.114;2023-04-03T08:50:06;2.78;;;1.98;;
22531;SDS011;11432;46.924;7.114;2023-04-03T08:55:48;4.57;;;2.40;;
22531;SDS011;11432;46.924;7.114;2023-04-03T08:57:51;2.53;;;2.10;;
22531;SDS011;11432;46.924;7.114;2023-04-03T09:00:47;2.53;;;1.95;;
22531;SDS011;11432;46.924;7.114;2023-04-03T09:03:17;3.10;;;2.30;;
22531;SDS011;11432;46.924;7.114;2023-04-03T09:05:53;3.50;;;2.50;;
22531;SDS011;11432;46.924;7.114;2023-04-03T09:08:31;4.45;;;2.20;;
22531;SDS011;11432;46.924;7.114;2023-04-03T09:11:21;2.33;;;1.92;;
22531;SDS011;11432;46.924;7.114;2023-04-03T09:14:04;3.83;;;2.60;;
22531;SDS011;11432;46.924;7.114;2023-04-03T09:22:03;2.83;;;2.30;;
22531;SDS011;11432;46.924;7.114;2023-04-03T09:24:47;2.92;;;2.53;;
22531;SDS011;11432;46.924;7.114;2023-04-03T09:27:21;3.22;;;1.95;;
22531;SDS011;11432;46.924;7.114;2023-04-03T09:29:46;2.75;;;2.15;;
22531;SDS011;11432;46.924;7.114;2023-04-03T09:32:21;3.70;;;2.40;;
22531;SDS011;11432;46.924;7.114;2023-04-03T09:35:01;2.45;;;2.00;;
22531;SDS011;11432;46.924;7.114;2023-04-03T09:37:52;2.40;;;1.80;;
22531;SDS011;11432;46.924;7.114;2023-04-03T09:43:54;6.80;;;2.47;;
22531;SDS011;11432;46.924;7.114;2023-04-03T09:48:50;2.92;;;2.00;;
22531;SDS011;11432;46.924;7.114;2023-04-03T09:51:17;2.92;;;2.05;;
22531;SDS011;11432;46.924;7.114;2023-04-03T09:53:44;2.20;;;1.85;;
22531;SDS011;11432;46.924;7.114;2023-04-03T09:58:42;2.38;;;1.77;;
22531;SDS011;11432;46.924;7.114;2023-04-03T10:01:21;2.10;;;1.70;;
22531;SDS011;11432;46.924;7.114;2023-04-03T10:04:05;2.53;;;1.60;;
22531;SDS011;11432;46.924;7.114;2023-04-03T10:06:37;2.42;;;1.65;;
22531;SDS011;11432;46.924;7.114;2023-04-03T10:17:09;3.75;;;1.70;;
22531;SDS011;11432;46.924;7.114;2023-04-03T10:25:28;1.67;;;1.25;;
22531;SDS011;11432;46.924;7.114;2023-04-03T10:37:24;2.08;;;1.60;;
22531;SDS011;11432;46.924;7.114;2023-04-03T10:42:18;2.05;;;1.50;;
22531;SDS011;11432;46.924;7.114;2023-04-03T10:50:42;2.42;;;1.73;;
22531;SDS011;11432;46.924;7.114;2023-04-03T10:56:09;1.50;;;1.20;;
22531;SDS011;11432;46.924;7.114;2023-04-03T10:58:58;2.78;;;1.55;;
22531;SDS011;11432;46.924;7.114;2023-04-03T11:01:49;1.67;;;1.38;;
22531;SDS011;11432;46.924;7.114;2023-04-03T11:04:19;1.98;;;1.70;;
22531;SDS011;11432;46.924;7.114;2023-04-03T11:07:32;2.97;;;1.83;;
22531;SDS011;11432;46.924;7.114;2023-04-03T11:09:40;2.40;;;1.67;;
22531;SDS011;11432;46.924;7.114;2023-04-03T11:14:50;3.28;;;1.88;;
22531;SDS011;11432;46.924;7.114;2023-04-03T11:19:57;2.88;;;1.80;;
22531;SDS011;11432;46.924;7.114;2023-04-03T11:25:02;3.90;;;2.20;;
22531;SDS011;11432;46.924;7.114;2023-04-03T11:27:40;2.63;;;1.70;;
22531;SDS011;11432;46.924;7.114;2023-04-03T11:30:22;2.67;;;1.70;;
22531;SDS011;11432;46.924;7.114;2023-04-03T11:35:53;2.25;;;1.75;;
22531;SDS011;11432;46.924;7.114;2023-04-03T11:38:28;3.65;;;1.52;;
22531;SDS011;11432;46.924;7.114;2023-04-03T11:40:59;5.28;;;2.00;;
22531;SDS011;11432;46.924;7.114;2023-04-03T11:43:27;5.35;;;1.60;;
22531;SDS011;11432;46.924;7.114;2023-04-03T11:45:56;1.42;;;1.02;;
22531;SDS011;11432;46.924;7.114;2023-04-03T11:50:58;3.13;;;1.40;;
22531;SDS011;11432;46.924;7.114;2023-04-03T11:53:47;2.30;;;1.50;;
22531;SDS011;11432;46.924;7.114;2023-04-03T12:01:48;2.60;;;1.52;;
22531;SDS011;11432;46.924;7.114;2023-04-03T12:04:18;4.65;;;1.70;;
22531;SDS011;11432;46.924;7.114;2023-04-03T12:15:19;4.63;;;1.40;;
22531;SDS011;11432;46.924;7.114;2023-04-03T12:17:48;1.98;;;1.40;;
22531;SDS011;11432;46.924;7.114;2023-04-03T12:20:45;2.80;;;1.50;;
22531;SDS011;11432;46.924;7.114;2023-04-03T12:23:30;2.25;;;1.27;;
22531;SDS011;11432;46.924;7.114;2023-04-03T12:26:00;3.03;;;1.35;;
22531;SDS011;11432;46.924;7.114;2023-04-03T12:28:35;2.58;;;1.70;;
22531;SDS011;11432;46.924;7.114;2023-04-03T12:31:03;0.77;;;0.30;;
22531;SDS011;11432;46.924;7.114;2023-04-03T12:33:33;2.97;;;1.70;;
22531;SDS011;11432;46.924;7.114;2023-04-03T12:36:37;1.90;;;1.65;;
22531;SDS011;11432;46.924;7.114;2023-04-03T12:42:19;2.50;;;1.52;;
22531;SDS011;11432;46.924;7.114;2023-04-03T12:47:33;1.83;;;1.17;;
22531;SDS011;11432;46.924;7.114;2023-04-03T12:50:04;2.47;;;1.33;;
22531;SDS011;11432;46.924;7.114;2023-04-03T12:52:41;2.00;;;1.38;;
22531;SDS011;11432;46.924;7.114;2023-04-03T12:55:15;2.25;;;1.40;;
22531;SDS011;11432;46.924;7.114;2023-04-03T12:57:42;3.28;;;1.50;;
22531;SDS011;11432;46.924;7.114;2023-04-03T13:02:52;2.67;;;1.45;;
22531;SDS011;11432;46.924;7.114;2023-04-03T13:05:18;1.92;;;1.27;;
22531;SDS011;11432;46.924;7.114;2023-04-03T13:07:48;2.80;;;1.60;;
22531;SDS011;11432;46.924;7.114;2023-04-03T13:10:17;1.40;;;0.90;;
22531;SDS011;11432;46.924;7.114;2023-04-03T13:15:15;2.10;;;1.50;;
22531;SDS011;11432;46.924;7.114;2023-04-03T13:17:45;4.45;;;1.52;;
22531;SDS011;11432;46.924;7.114;2023-04-03T13:20:17;2.38;;;1.30;;
22531;SDS011;11432;46.924;7.114;2023-04-03T13:22:53;1.95;;;1.40;;
22531;SDS011;11432;46.924;7.114;2023-04-03T13:25:26;2.67;;;1.85;;
22531;SDS011;11432;46.924;7.114;2023-04-03T13:27:54;2.97;;;1.52;;
22531;SDS011;11432;46.924;7.114;2023-04-03T13:30:24;2.70;;;1.50;;
22531;SDS011;11432;46.924;7.114;2023-04-03T13:32:49;2.03;;;1.27;;
22531;SDS011;11432;46.924;7.114;2023-04-03T13:37:54;1.90;;;1.42;;
22531;SDS011;11432;46.924;7.114;2023-04-03T13:40:23;2.78;;;1.58;;
22531;SDS011;11432;46.924;7.114;2023-04-03T13:42:58;1.10;;;0.80;;
22531;SDS011;11432;46.924;7.114;2023-04-03T13:45:29;1.45;;;1.02;;
22531;SDS011;11432;46.924;7.114;2023-04-03T13:48:16;2.10;;;1.13;;
22531;SDS011;11432;46.924;7.114;2023-04-03T13:53:24;1.75;;;1.30;;
22531;SDS011;11432;46.924;7.114;2023-04-03T13:56:37;3.53;;;1.30;;
22531;SDS011;11432;46.924;7.114;2023-04-03T14:01:32;5.05;;;1.83;;
22531;SDS011;11432;46.924;7.114;2023-04-03T14:04:10;2.50;;;1.35;;
22531;SDS011;11432;46.924;7.114;2023-04-03T14:06:40;1.58;;;1.23;;
22531;SDS011;11432;46.924;7.114;2023-04-03T14:09:05;3.35;;;1.17;;
22531;SDS011;11432;46.924;7.114;2023-04-03T14:11:31;2.63;;;1.20;;
22531;SDS011;11432;46.924;7.114;2023-04-03T14:14:00;1.83;;;1.05;;
22531;SDS011;11432;46.924;7.114;2023-04-03T14:16:30;1.13;;;1.02;;
22531;SDS011;11432;46.924;7.114;2023-04-03T14:18:58;2.00;;;1.45;;
22531;SDS011;11432;46.924;7.114;2023-04-03T14:21:24;2.20;;;1.50;;
22531;SDS011;11432;46.924;7.114;2023-04-03T14:23:49;2.30;;;1.60;;
22531;SDS011;11432;46.924;7.114;2023-04-03T14:26:16;1.58;;;1.08;;
22531;SDS011;11432;46.924;7.114;2023-04-03T14:28:46;1.90;;;1.25;;
22531;SDS011;11432;46.924;7.114;2023-04-03T14:31:14;3.58;;;1.50;;
22531;SDS011;11432;46.924;7.114;2023-04-03T14:33:41;2.55;;;1.45;;
22531;SDS011;11432;46.924;7.114;2023-04-03T14:38:40;2.80;;;1.20;;
22531;SDS011;11432;46.924;7.114;2023-04-03T14:41:06;4.75;;;1.20;;
22531;SDS011;11432;46.924;7.114;2023-04-03T14:43:32;2.65;;;1.38;;
22531;SDS011;11432;46.924;7.114;2023-04-03T14:45:58;1.73;;;1.25;;
22531;SDS011;11432;46.924;7.114;2023-04-03T14:48:24;1.73;;;1.30;;
22531;SDS011;11432;46.924;7.114;2023-04-03T14:50:52;2.08;;;1.38;;
22531;SDS011;11432;46.924;7.114;2023-04-03T14:53:19;2.00;;;0.73;;
22531;SDS011;11432;46.924;7.114;2023-04-03T14:55:49;2.08;;;1.45;;
22531;SDS011;11432;46.924;7.114;2023-04-03T14:58:16;1.95;;;1.38;;
22531;SDS011;11432;46.924;7.114;2023-04-03T15:00:44;3.43;;;1.20;;
22531;SDS011;11432;46.924;7.114;2023-04-03T15:03:14;1.70;;;1.30;;
22531;SDS011;11432;46.924;7.114;2023-04-03T15:05:43;3.25;;;1.60;;
22531;SDS011;11432;46.924;7.114;2023-04-03T15:08:17;5.45;;;1.50;;
22531;SDS011;11432;46.924;7.114;2023-04-03T15:10:50;1.98;;;1.10;;
22531;SDS011;11432;46.924;7.114;2023-04-03T15:13:18;1.52;;;1.30;;
22531;SDS011;11432;46.924;7.114;2023-04-03T15:15:44;1.88;;;1.30;;
22531;SDS011;11432;46.924;7.114;2023-04-03T15:18:15;1.33;;;1.17;;
22531;SDS011;11432;46.924;7.114;2023-04-03T15:20:43;2.97;;;1.77;;
22531;SDS011;11432;46.924;7.114;2023-04-03T15:23:10;1.95;;;1.27;;
22531;SDS011;11432;46.924;7.114;2023-04-03T15:25:42;2.03;;;1.30;;
22531;SDS011;11432;46.924;7.114;2023-04-03T15:28:11;2.03;;;1.13;;
22531;SDS011;11432;46.924;7.114;2023-04-03T15:30:47;1.65;;;1.33;;
22531;SDS011;11432;46.924;7.114;2023-04-03T15:33:12;2.03;;;1.27;;
22531;SDS011;11432;46.924;7.114;2023-04-03T15:35:38;2.72;;;1.20;;
22531;SDS011;11432;46.924;7.114;2023-04-03T15:38:03;1.95;;;1.50;;
22531;SDS011;11432;46.924;7.114;2023-04-03T15:40:29;2.50;;;1.60;;
22531;SDS011;11432;46.924;7.114;2023-04-03T15:42:55;2.47;;;1.50;;
22531;SDS011;11432;46.924;7.114;2023-04-03T15:45:20;4.07;;;1.70;;
22531;SDS011;11432;46.924;7.114;2023-04-03T15:47:46;1.98;;;1.48;;
22531;SDS011;11432;46.924;7.114;2023-04-03T15:50:12;2.42;;;1.30;;
22531;SDS011;11432;46.924;7.114;2023-04-03T15:52:38;2.10;;;1.35;;
22531;SDS011;11432;46.924;7.114;2023-04-03T15:55:04;2.45;;;1.60;;
22531;SDS011;11432;46.924;7.114;2023-04-03T15:57:31;1.83;;;1.50;;
22531;SDS011;11432;46.924;7.114;2023-04-03T15:59:56;2.20;;;1.60;;
22531;SDS011;11432;46.924;7.114;2023-04-03T16:02:22;2.33;;;1.50;;
22531;SDS011;11432;46.924;7.114;2023-04-03T16:04:52;2.05;;;1.58;;
22531;SDS011;11432;46.924;7.114;2023-04-03T16:07:18;2.70;;;1.50;;
22531;SDS011;11432;46.924;7.114;2023-04-03T16:09:44;3.17;;;1.70;;
22531;SDS011;11432;46.924;7.114;2023-04-03T16:12:10;2.85;;;1.27;;
22531;SDS011;11432;46.924;7.114;2023-04-03T16:14:35;2.10;;;1.35;;
22531;SDS011;11432;46.924;7.114;2023-04-03T16:17:01;2.42;;;1.45;;
22531;SDS011;11432;46.924;7.114;2023-04-03T16:19:28;2.17;;;1.50;;
22531;SDS011;11432;46.924;7.114;2023-04-03T16:21:54;2.22;;;1.38;;
22531;SDS011;11432;46.924;7.114;2023-04-03T16:24:20;3.97;;;1.77;;
22531;SDS011;11432;46.924;7.114;2023-04-03T16:26:46;1.98;;;1.60;;
22531;SDS011;11432;46.924;7.114;2023-04-03T16:29:12;2.47;;;1.60;;
22531;SDS011;11432;46.924;7.114;2023-04-03T16:31:37;5.43;;;1.40;;
22531;SDS011;11432;46.924;7.114;2023-04-03T16:34:03;2.33;;;1.70;;
22531;SDS011;11432;46.924;7.114;2023-04-03T16:36:29;2.50;;;1.48;;
22531;SDS011;11432;46.924;7.114;2023-04-03T16:38:55;3.70;;;1.75;;
22531;SDS011;11432;46.924;7.114;2023-04-03T16:41:20;2.30;;;1.42;;
22531;SDS011;11432;46.924;7.114;2023-04-03T16:43:46;2.10;;;1.58;;
22531;SDS011;11432;46.924;7.114;2023-04-03T16:46:11;3.58;;;1.83;;